We seek to understand and document all radio transmissions, legal and otherwise, as part of the radio listening hobby. We do not encourage any radio operations contrary to regulations. Always consult with the appropriate authorities if you have questions concerning what is permissible in your locale.

Author Topic: MARSCOMM METAR REPORT 6994.8 USB (RTTY) 0310 UTC 17 SEP 2022  (Read 476 times)

Offline ~SIGINT~

  • DXing Phenomena
  • *******
  • Posts: 4024
  • N.E. Canada (FN08)
  • .ılılı..ılılı..ılılı..ılılı..ılılı..ılılı.
    • View Profile
    • Milspec Communication Canada
MARSCOMM METAR REPORT 6994.8 USB (RTTY) 0310 UTC 17 SEP 2022
« on: September 17, 2022, 0334 UTC »
MARSCOMM METAR REPORT 6994.8 USB (RTTY) 03:10 UTC 17 SEP 2022

Slight shif in frequency from 6994.6 kHz to 6994.8 kHz as previously noted in the log entry.

03:10Z MARSCOM METAR Report in RTTY 1275/850 75 baud; weak barely readable.
03:15Z End of broadcast

03:16Z MARSCOM METAR Report in RTTY 1275/850 75 baud; loud and clear;
03:20Z End of broadcast.

RYRYRYRYRYRYRYRYRYRYRYRYRYRYRYRYRYRYRYRYRYRYRYRYRYRYRYRYRYRYRYRYRY
RYRYRYRYRYRYRYRYRYRYRYRYRYRYRYRYRYRYRYRYRYRYRYRYRYRYRYRYRYRYRYRYRY

METAR REPORT DE MARSCOMM NORTHEAST03
-,


KTIK 170)55Z AUTOPQIPQQKT 10SM CLR 26/16 A2992 RMK AO2 SLP126 T0264015
7 &21
TAF KTIK 170100Z 1701/1807 17009KT 9999 SKC QNH2990INS
  BECMG 1&/1713 18012G18KT 9999 BKN015 QNHLLOTOINS
 TO 1714/1715 18012G18KT 9999 FEWL WP QNH2991INS TX34/1721Z
TN/1712Z


KOFF 170255Z 15006KT 10SM CLCCQY A2994 RMK AO2A SLPNO T02140163 5300
3 PWINO PNO FZRANOTSNO VISNO RWY12 CHINO RWY12 $
NO TAF FOUND FOR KOFF


KNHK 170252Z 00000KT10SM CLR 16/13 A3019 RMK AO2 SLP224 T0161033 5100
6 $

TAF KNHK 1623/1723 VRB05KT 9999 SKC QNH3013INS
  BECMG 1716/1718 1009999 FEW045 FEW280 QNH3016INS AUTOMATED
SENSOR METWATCH 1703 TIL 1711UT17/1710ZT28/1721Z FN20066


KSKA 170296Z 21016KT 10SM CL 15/04 A2990 RMK AO2A SLP126 T01530040
55002 $

TAF KSKA 170300Z 1703/1809 23009KT 9999 BKN060 QNH2990INS
  BECMG 1706/1707 VRB06KT 9999 FEW070 QNH2989INS
  BECMG 1718/1719 05012KT 9999 FEW070 SCT240 QNH2972INS TX21/1723
Z TN04/112Z


AKWRI 170255Z AUTO 00000KT 10SM CLR 16/12 A3019 RMK AO2 SLP222 T01620124
52012 CHQXO RWY24 $

TAF KWRI 170200Z 1702/1808 VRB03KT 9999 SKC QNH3011INS
 BECMG 1705/1706 VRB05KT 9999 BKN040 QNH3018INS
  BECMG 1723/1724 19007KT 9999 SCT030 QNH3016INS TX26/1719Z TN12/
1710Z


KLNK 170254Z 16010KT 10SM CLR 24/17 A2991 RMK AO2 SLP119 T02390167 5300
7

KLNK 162320ZVCQ
AQUWR 16009KT PYSM FW060
  FM170700 16004KT P6SM SCT040 BKN080 WS020/21042KT
  FM171100 17007KT P6SM SCT040 BKN080
 
LQUQYPP 18011G20KT P6SM SCT040 SCT200
  FM172000 21013G23KT P6SM SCT040 SCT150


KSUU 170256Z AUTO 2201T10SM CLR 20/11 A2983 RMK AO2 SLP108 T0
 PPQPO
TTPPU $

TAF KSUU 170300Z 1703/1109 23012G18KT 9999 SKC QNH2979INS
  BECMG 1720/1721 23015G25KT 9999PYPQNH2967INS
  BECMG 1807/1808 23015G25KTH9999 BKN020 QNH2968INS TX28/1722Z
TN14/1714Z



NNNN

CONTACT MARSCOMM ON
11098.5 KHZ OR 7545.0 KHZ
UPPER SIDEBANDGSB)


E MARSCOMM NORTHEAST03



RSPduo | End-fed longwire antenna
« Last Edit: September 17, 2022, 0336 UTC by ~SIGINT~ »

 


Item image   The Modern Detector Circuit Encyclopedia by Rudolf F. Graf

 $14.95